createdAt,value
2022-11-16T00:01:50.709Z,32.8
2022-11-16T00:04:08.702Z,31.4
2022-11-16T00:06:27.244Z,30.5
2022-11-16T00:08:46.343Z,32.5
2022-11-16T00:11:05.326Z,33.4
2022-11-16T00:15:42.347Z,32.4
2022-11-16T00:18:00.760Z,31.1
2022-11-16T00:20:19.388Z,32.3
2022-11-16T00:22:37.528Z,31.3
2022-11-16T00:24:55.784Z,30.4
2022-11-16T00:27:14.247Z,30.7
2022-11-16T00:29:32.256Z,31.2
2022-11-16T00:31:50.450Z,31.4
2022-11-16T00:34:08.757Z,31.4
2022-11-16T00:36:26.890Z,31.8
2022-11-16T00:41:03.314Z,30.5
2022-11-16T00:43:21.579Z,31.6
2022-11-16T00:45:39.847Z,31.6
2022-11-16T00:48:00.559Z,31.6
2022-11-16T00:50:17.041Z,32.2
2022-11-16T00:52:35.252Z,31.6
2022-11-16T00:54:53.695Z,30.9
2022-11-16T00:57:12.773Z,32.9
2022-11-16T00:59:31.834Z,34.5
2022-11-16T01:01:50.565Z,32.3
2022-11-16T01:04:08.717Z,32.1
2022-11-16T01:06:26.877Z,31
2022-11-16T01:08:45.173Z,31.3
2022-11-16T01:11:03.285Z,30.4
2022-11-16T01:13:21.763Z,31.3
2022-11-16T01:15:39.828Z,32.1
2022-11-16T01:17:57.888Z,31.9
2022-11-16T01:20:16.107Z,31.4
2022-11-16T01:22:34.304Z,31.9
2022-11-16T01:24:52.768Z,31.8
2022-11-16T01:27:11.581Z,32.6
2022-11-16T01:29:29.722Z,30.8
2022-11-16T01:31:48.320Z,30.9
2022-11-16T01:34:07.066Z,32.4
2022-11-16T01:36:25.147Z,31.3
2022-11-16T01:38:43.535Z,30.8
2022-11-16T01:41:01.584Z,30.6
2022-11-16T01:43:19.963Z,30.8
2022-11-16T01:45:38.125Z,31.1
2022-11-16T01:47:56.404Z,31.3
2022-11-16T01:50:14.458Z,31.1
2022-11-16T01:52:32.633Z,31.3
2022-11-16T01:54:50.975Z,30.9
2022-11-16T01:57:09.087Z,31.3
2022-11-16T01:59:27.507Z,32.3
2022-11-16T02:01:45.643Z,32.3
2022-11-16T02:04:04.149Z,31.5
2022-11-16T02:06:22.782Z,32.7
2022-11-16T02:08:40.964Z,31.6
2022-11-16T02:10:59.261Z,31.1
2022-11-16T02:13:17.480Z,30.4
2022-11-16T02:15:35.598Z,31
2022-11-16T02:17:53.712Z,31
2022-11-16T02:20:12.030Z,31
2022-11-16T02:22:30.178Z,30.9
2022-11-16T02:24:48.394Z,31.7
2022-11-16T02:27:06.954Z,32.1
2022-11-16T02:29:26.052Z,32.2
2022-11-16T02:31:44.707Z,34.3
2022-11-16T02:34:02.864Z,32
2022-11-16T02:36:21.206Z,31
2022-11-16T02:38:39.372Z,30.8
2022-11-16T02:40:57.705Z,30.2
2022-11-16T02:43:15.775Z,31.3
2022-11-16T02:45:34.247Z,31.4
2022-11-16T02:47:52.245Z,31.8
2022-11-16T02:50:10.490Z,31.4
2022-11-16T02:52:28.685Z,31.6
2022-11-16T02:54:47.073Z,31.9
2022-11-16T02:57:05.230Z,32.1
2022-11-16T02:59:23.441Z,32.1
2022-11-16T03:01:41.662Z,31.8
2022-11-16T03:03:59.877Z,31.3
2022-11-16T03:06:18.449Z,31.9
2022-11-16T03:10:55.722Z,31.6
2022-11-16T03:13:14.360Z,32.8
2022-11-16T03:15:32.617Z,31.4
2022-11-16T03:17:50.821Z,30.9
2022-11-16T03:20:08.992Z,31
2022-11-16T03:22:27.300Z,30.6
2022-11-16T03:24:45.775Z,30.6
2022-11-16T03:27:04.517Z,32.3
2022-11-16T03:29:22.908Z,31.3
2022-11-16T03:31:41.132Z,31
2022-11-16T03:33:59.455Z,31.4
2022-11-16T03:38:36.744Z,31.6
2022-11-16T03:40:54.772Z,30.8
2022-11-16T03:43:13.272Z,31
2022-11-16T03:45:32.248Z,32.2
2022-11-16T03:47:50.977Z,33.8
2022-11-16T03:50:09.107Z,32.1
2022-11-16T03:52:27.471Z,30.5
2022-11-16T03:54:45.656Z,30.8
2022-11-16T03:57:04.255Z,30.8
2022-11-16T03:59:22.945Z,32
2022-11-16T04:01:44.651Z,31.3
2022-11-16T04:06:18.758Z,32.9
2022-11-16T04:08:37.603Z,33.8
2022-11-16T04:10:56.134Z,32.3
2022-11-16T04:13:15.162Z,32.3
2022-11-16T04:15:33.327Z,31.1
2022-11-16T04:17:52.059Z,30.9
2022-11-16T04:20:11.587Z,33.4
2022-11-16T04:22:28.989Z,31.4
2022-11-16T04:24:47.854Z,30.6
2022-11-16T04:27:06.863Z,32.5
2022-11-16T04:29:25.744Z,34.1
2022-11-16T04:31:44.045Z,32
2022-11-16T04:34:02.434Z,30.9
2022-11-16T04:36:20.989Z,30.5
2022-11-16T04:38:39.780Z,32.1
2022-11-16T04:40:58.110Z,31.6
2022-11-16T04:43:16.530Z,30.9
2022-11-16T04:45:35.151Z,30.1
2022-11-16T04:47:53.890Z,32.3
2022-11-16T04:50:12.395Z,31.1
2022-11-16T04:52:30.683Z,30.6
2022-11-16T04:54:49.529Z,31.3
2022-11-16T04:57:08.125Z,32.3
2022-11-16T04:59:26.638Z,31.1
2022-11-16T05:01:44.943Z,31.3
2022-11-16T05:04:03.410Z,31.5
2022-11-16T05:06:21.967Z,31.3
2022-11-16T05:08:40.705Z,32.1
2022-11-16T05:10:59.153Z,31.2
2022-11-16T05:13:17.291Z,31
2022-11-16T05:15:36.037Z,30.5
2022-11-16T05:17:54.776Z,32.3
2022-11-16T05:20:13.367Z,31
2022-11-16T05:22:31.610Z,30.6
2022-11-16T05:24:49.805Z,30.9
2022-11-16T05:27:08.567Z,30.8
2022-11-16T05:31:45.837Z,31.4
2022-11-16T05:34:03.982Z,30.7
2022-11-16T05:36:22.561Z,30.1
2022-11-16T05:38:40.771Z,30.8
2022-11-16T05:40:59.554Z,30.6
2022-11-16T05:43:18.329Z,32.4
2022-11-16T05:45:36.774Z,31.1
2022-11-16T05:47:54.965Z,31.5
2022-11-16T05:50:13.411Z,30.8
2022-11-16T05:54:49.992Z,30.9
2022-11-16T05:57:08.549Z,31.1
2022-11-16T05:59:26.871Z,30.8
2022-11-16T06:01:45.360Z,30.8
2022-11-16T06:04:03.576Z,31.3
2022-11-16T06:06:22.080Z,30.7
2022-11-16T06:08:40.314Z,30.6
2022-11-16T06:10:58.614Z,31.4
2022-11-16T06:13:17.093Z,31.4
2022-11-16T06:15:35.325Z,30.8
2022-11-16T06:17:54.084Z,30.7
2022-11-16T06:20:12.075Z,31.3
2022-11-16T06:24:48.739Z,30.8
2022-11-16T06:27:07.495Z,31.1
2022-11-16T06:29:26.254Z,32.4
2022-11-16T06:31:45.073Z,31.2
2022-11-16T06:34:04.194Z,32.3
2022-11-16T06:36:22.259Z,31.7
2022-11-16T06:38:40.556Z,30.8
2022-11-16T06:40:58.871Z,31.2
2022-11-16T06:43:17.598Z,30.9
2022-11-16T06:45:36.463Z,32.6
2022-11-16T06:47:54.897Z,31.3
2022-11-16T06:50:12.758Z,31
2022-11-16T06:52:31.716Z,30.7
2022-11-16T06:54:50.037Z,30.4
2022-11-16T06:57:08.427Z,30.7
2022-11-16T06:59:26.926Z,30.6
2022-11-16T07:01:45.166Z,30.3
2022-11-16T07:04:03.553Z,30.2
2022-11-16T07:08:40.724Z,31.1
2022-11-16T07:11:03.015Z,30.9
2022-11-16T07:13:16.972Z,30.8
2022-11-16T07:15:35.217Z,30.6
2022-11-16T07:17:53.776Z,30.6
2022-11-16T07:20:12.095Z,31.4
2022-11-16T07:22:30.556Z,30.7
2022-11-16T07:24:49.074Z,31.5
2022-11-16T07:27:07.034Z,31
2022-11-16T07:29:25.517Z,31.1
2022-11-16T07:31:43.792Z,30.9
2022-11-16T07:34:02.266Z,30.8
2022-11-16T07:36:20.545Z,30.9
2022-11-16T07:38:39.075Z,30.6
2022-11-16T07:40:57.473Z,31.2
2022-11-16T07:43:15.609Z,31
2022-11-16T07:45:34.003Z,30.8
2022-11-16T07:48:21.002Z,31.1
2022-11-16T07:50:39.673Z,32.9
2022-11-16T07:52:57.848Z,31.4
2022-11-16T07:55:16.153Z,31
2022-11-16T07:57:34.798Z,30.3
2022-11-16T07:59:52.865Z,30.3
2022-11-16T08:02:11.131Z,30.3
2022-11-16T08:04:29.578Z,30.2
2022-11-16T08:06:48.410Z,32.7
2022-11-16T08:09:06.917Z,31.6
2022-11-16T08:11:26.038Z,32.9
2022-11-16T08:13:44.904Z,33
2022-11-16T08:16:02.956Z,31.8
2022-11-16T08:18:21.292Z,31.3
2022-11-16T08:20:39.497Z,30.7
2022-11-16T08:22:57.692Z,30.9
2022-11-16T08:25:15.953Z,31.1
2022-11-16T08:27:34.201Z,30.8
2022-11-16T08:29:52.616Z,30.9
2022-11-16T08:32:10.765Z,30.8
2022-11-16T08:34:28.983Z,30.8
2022-11-16T08:36:47.323Z,30.4
2022-11-16T08:39:05.537Z,31.2
2022-11-16T08:41:24.139Z,30.1
2022-11-16T08:43:42.971Z,32.5
2022-11-16T08:48:19.407Z,31.2
2022-11-16T08:50:55.742Z,31.4
2022-11-16T08:53:21.230Z,32.6
2022-11-16T08:55:39.467Z,31.8
2022-11-16T08:57:57.757Z,31.2
2022-11-16T09:00:15.892Z,30.9
2022-11-16T09:02:34.109Z,31.3
2022-11-16T09:04:53.043Z,30.5
2022-11-16T09:07:11.530Z,33.5
2022-11-16T09:09:29.737Z,31.4
2022-11-16T09:11:47.880Z,30.3
2022-11-16T09:14:06.059Z,30.2
2022-11-16T09:16:24.307Z,30.4
2022-11-16T09:18:42.887Z,31
2022-11-16T09:21:01.995Z,32.9
2022-11-16T09:23:24.991Z,32.1
2022-11-16T09:25:38.923Z,32.4
2022-11-16T09:27:57.099Z,31.3
2022-11-16T09:30:15.585Z,30.6
2022-11-16T09:32:33.942Z,30.9
2022-11-16T09:34:52.655Z,32.6
2022-11-16T09:37:11.028Z,31.8
2022-11-16T09:40:01.949Z,31.4
2022-11-16T09:42:20.254Z,30.6
2022-11-16T09:44:38.443Z,30.6
2022-11-16T09:46:56.670Z,31.6
2022-11-16T09:49:17.462Z,30.8
2022-11-16T09:51:33.479Z,31.1
2022-11-16T09:53:52.325Z,32.5
2022-11-16T09:56:10.819Z,31.4
2022-11-16T09:58:28.814Z,31.1
2022-11-16T10:00:47.159Z,30.5
2022-11-16T10:03:05.301Z,31.1
2022-11-16T10:05:23.540Z,31.9
2022-11-16T10:07:42.015Z,32.3
2022-11-16T10:10:00.395Z,31.9
2022-11-16T10:12:18.988Z,32.4
2022-11-16T10:14:37.003Z,32.6
2022-11-16T10:16:55.385Z,31.6
2022-11-16T10:19:13.726Z,32.6
2022-11-16T10:21:32.080Z,32.3
2022-11-16T10:23:50.440Z,32.6
2022-11-16T10:26:08.994Z,32.1
2022-11-16T10:28:27.207Z,31.9
2022-11-16T10:30:45.541Z,31.9
2022-11-16T10:33:08.150Z,32.2
2022-11-16T10:35:22.481Z,32.6
2022-11-16T10:37:41.229Z,32.6
2022-11-16T10:39:59.740Z,32.4
2022-11-16T10:42:18.260Z,31.2
2022-11-16T10:44:36.603Z,32.1
2022-11-16T10:46:55.648Z,33.1
2022-11-16T10:49:14.299Z,33.7
2022-11-16T10:51:32.713Z,32.1
2022-11-16T10:53:51.075Z,31.3
2022-11-16T10:56:07.986Z,31.9
2022-11-16T10:58:24.573Z,28.3
2022-11-16T11:02:57.174Z,29.8
2022-11-16T11:05:13.596Z,29
2022-11-16T11:07:30.129Z,29.2
2022-11-16T11:09:46.360Z,28.8
2022-11-16T11:12:02.775Z,29
2022-11-16T11:14:19.240Z,28.9
2022-11-16T11:16:35.634Z,29.1
2022-11-16T11:18:52.096Z,29.2
2022-11-16T11:21:08.404Z,28.8
2022-11-16T11:23:24.898Z,29.1
2022-11-16T11:26:01.370Z,29.2
2022-11-16T11:28:17.705Z,29.2
2022-11-16T11:30:34.352Z,28.9
2022-11-16T11:32:50.589Z,28.6
2022-11-16T11:35:07.091Z,28.6
2022-11-16T11:37:23.432Z,28.6
2022-11-16T11:39:40.156Z,29
2022-11-16T11:41:56.310Z,29.3
2022-11-16T11:44:12.753Z,28.4
2022-11-16T11:46:47.488Z,29
2022-11-16T11:49:44.584Z,28.5
2022-11-16T11:52:01.742Z,28.9
2022-11-16T11:54:20.841Z,33
2022-11-16T11:56:38.646Z,34.5
2022-11-16T11:58:54.038Z,26.3
2022-11-16T12:01:09.300Z,26.1
2022-11-16T12:03:24.978Z,26.4
2022-11-16T12:07:55.403Z,26.9
2022-11-16T12:10:10.807Z,27.1
2022-11-16T12:12:26.580Z,26.2
2022-11-16T12:14:42.638Z,29.6
2022-11-16T12:16:58.576Z,29
2022-11-16T12:19:14.968Z,28.7
2022-11-16T12:21:31.249Z,28.7
2022-11-16T12:23:47.556Z,29.1
2022-11-16T12:26:03.953Z,28.8
2022-11-16T12:28:20.368Z,28.8
2022-11-16T12:30:36.812Z,28.7
2022-11-16T12:32:54.413Z,29.1
2022-11-16T12:35:10.588Z,28.9
2022-11-16T12:37:27.343Z,30
2022-11-16T12:39:44.688Z,29.9
2022-11-16T12:42:01.340Z,29.6
2022-11-16T12:44:18.094Z,28.7
2022-11-16T12:46:35.226Z,30.1
2022-11-16T12:48:52.250Z,28.7
2022-11-16T12:51:09.236Z,30.2
2022-11-16T12:53:25.948Z,29.2
2022-11-16T12:56:09.416Z,29.3
2022-11-16T12:58:26.280Z,29.3
2022-11-16T13:00:43.132Z,29.2
2022-11-16T13:02:59.940Z,28.8
2022-11-16T13:05:16.879Z,29.2
2022-11-16T13:07:33.919Z,29.4
2022-11-16T13:09:50.478Z,28.7
2022-11-16T13:14:55.348Z,29.9
2022-11-16T13:17:11.584Z,29.4
2022-11-16T13:19:28.478Z,29.3
2022-11-16T13:21:45.435Z,29.8
2022-11-16T13:24:02.441Z,29.8
2022-11-16T13:26:18.871Z,28.8
2022-11-16T13:28:35.904Z,29.1
2022-11-16T13:30:52.234Z,29.4
2022-11-16T13:33:08.921Z,28.7
2022-11-16T13:37:44.676Z,32.4
2022-11-16T13:40:03.242Z,33.5
2022-11-16T13:44:40.456Z,32.6
2022-11-16T13:47:15.309Z,31.7
2022-11-16T13:49:33.721Z,31
2022-11-16T13:51:52.048Z,32.3
2022-11-16T13:55:47.636Z,33
2022-11-16T13:58:06.001Z,32.1
2022-11-16T14:00:24.268Z,32.3
2022-11-16T14:02:42.950Z,33.1
2022-11-16T14:05:01.201Z,32.7
2022-11-16T14:07:19.897Z,32.9
2022-11-16T14:09:38.199Z,33.7
2022-11-16T14:11:56.827Z,33.6
2022-11-16T14:14:15.076Z,33.4
2022-11-16T14:16:33.750Z,33.4
2022-11-16T14:18:52.112Z,33.9
2022-11-16T14:21:10.438Z,33.7
2022-11-16T14:23:29.112Z,33.3
2022-11-16T14:25:48.014Z,33.3
2022-11-16T14:28:07.144Z,33.4
2022-11-16T14:30:25.923Z,34.5
2022-11-16T14:32:44.946Z,34.4
2022-11-16T14:35:03.487Z,31.8
2022-11-16T14:37:21.967Z,30.4
2022-11-16T14:39:40.419Z,31.1
2022-11-16T14:41:59.219Z,32.4
2022-11-16T14:44:29.928Z,32.8
2022-11-16T14:46:48.107Z,32.8
2022-11-16T14:49:06.762Z,31.1
2022-11-16T14:53:43.894Z,31.9
2022-11-16T14:56:02.255Z,30.9
2022-11-16T14:58:20.587Z,31.8
2022-11-16T15:00:39.133Z,31.8
2022-11-16T15:03:02.249Z,32.5
2022-11-16T15:05:15.681Z,32.3
2022-11-16T15:07:34.090Z,32.7
2022-11-16T15:09:52.285Z,32.3
2022-11-16T15:12:10.659Z,32.3
2022-11-16T15:14:29.136Z,32.4
2022-11-16T15:16:47.490Z,32.4
2022-11-16T15:19:06.017Z,32.4
2022-11-16T15:23:46.309Z,31.6
2022-11-16T15:26:19.393Z,30.8
2022-11-16T15:28:38.348Z,32.8
2022-11-16T15:30:57.097Z,33.4
2022-11-16T15:33:15.459Z,31.5
2022-11-16T15:35:33.811Z,30.9
2022-11-16T15:37:52.210Z,31
2022-11-16T15:40:10.609Z,31.7
2022-11-16T15:42:28.946Z,32.3
2022-11-16T15:44:47.510Z,32.4
2022-11-16T15:47:06.591Z,32.6
2022-11-16T15:49:25.622Z,35.7
2022-11-16T15:51:44.255Z,32.9
2022-11-16T15:54:02.589Z,31.6
2022-11-16T15:56:20.905Z,30.8
2022-11-16T15:58:39.357Z,31.4
2022-11-16T16:00:57.904Z,32.7
2022-11-16T16:05:34.632Z,32.1
2022-11-16T16:07:53.544Z,32.7
2022-11-16T16:10:12.653Z,34.5
2022-11-16T16:12:31.420Z,34.7
2022-11-16T16:14:49.546Z,30.5
2022-11-16T16:17:07.981Z,31.2
2022-11-16T16:19:26.278Z,31.8
2022-11-16T16:21:45.000Z,31.8
2022-11-16T16:24:03.668Z,31.9
2022-11-16T16:26:21.855Z,31.2
2022-11-16T16:28:40.152Z,31.2
2022-11-16T16:30:58.425Z,31.3
2022-11-16T16:33:16.780Z,31.8
2022-11-16T16:35:34.997Z,31
2022-11-16T16:37:53.573Z,32.3
2022-11-16T16:40:11.749Z,32.6
2022-11-16T16:42:30.095Z,32.4
2022-11-16T16:44:48.474Z,32.8
2022-11-16T16:47:06.865Z,32
2022-11-16T16:49:25.436Z,32.6
2022-11-16T16:51:43.515Z,32.6
2022-11-16T16:54:01.976Z,32
2022-11-16T16:56:20.288Z,31.5
2022-11-16T16:58:38.375Z,31.3
2022-11-16T17:01:01.055Z,30.9
2022-11-16T17:03:14.860Z,30.9
2022-11-16T17:05:32.967Z,31.5
2022-11-16T17:07:51.177Z,31.6
2022-11-16T17:10:09.398Z,31.3
2022-11-16T17:12:27.578Z,32.2
2022-11-16T17:14:45.730Z,31.9
2022-11-16T17:17:03.997Z,32
2022-11-16T17:19:22.472Z,31.6
2022-11-16T17:21:41.111Z,32.4
2022-11-16T17:23:59.335Z,31
2022-11-16T17:26:17.616Z,30.8
2022-11-16T17:28:35.754Z,31.2
2022-11-16T17:30:53.993Z,30.5
2022-11-16T17:33:12.104Z,30.6
2022-11-16T17:35:30.629Z,31.2
2022-11-16T17:37:48.525Z,31.1
2022-11-16T17:40:06.757Z,31.1
2022-11-16T17:42:25.100Z,30.7
2022-11-16T17:44:43.485Z,30.8
2022-11-16T17:47:02.490Z,32.4
2022-11-16T17:49:21.146Z,33.7
2022-11-16T17:53:57.694Z,31.6
2022-11-16T17:58:35.191Z,32.9
2022-11-16T18:00:53.888Z,33.8
2022-11-16T18:03:12.090Z,32.2
2022-11-16T18:05:30.377Z,31.3
2022-11-16T18:07:48.454Z,30.6
2022-11-16T18:10:06.654Z,30.8
2022-11-16T18:12:25.124Z,30.5
2022-11-16T18:14:54.901Z,32.6
2022-11-16T18:17:17.883Z,32.3
2022-11-16T18:19:35.997Z,32.2
2022-11-16T18:21:54.195Z,30.4
2022-11-16T18:24:12.484Z,30.9
2022-11-16T18:26:30.699Z,30.5
2022-11-16T18:28:48.892Z,30.6
2022-11-16T18:31:08.159Z,31
2022-11-16T18:33:29.301Z,31.1
2022-11-16T18:35:43.656Z,30.9
2022-11-16T18:38:01.651Z,31.7
2022-11-16T18:40:19.913Z,31.2
2022-11-16T18:44:56.219Z,31.4
2022-11-16T18:47:14.854Z,31.1
2022-11-16T18:49:32.715Z,31.7
2022-11-16T18:51:50.898Z,31.3
2022-11-16T18:54:09.111Z,31.4
2022-11-16T18:56:27.302Z,31.8
2022-11-16T18:59:02.106Z,31.6
2022-11-16T19:01:20.634Z,31
2022-11-16T19:03:39.403Z,32.7
2022-11-16T19:05:57.738Z,30.7
2022-11-16T19:08:15.774Z,30.9
2022-11-16T19:10:34.260Z,30.3
2022-11-16T19:12:52.659Z,30.8
2022-11-16T19:15:10.836Z,31.1
2022-11-16T19:17:29.358Z,30.7
2022-11-16T19:20:05.036Z,32.6
2022-11-16T19:22:23.013Z,31.5
2022-11-16T19:24:41.289Z,31
2022-11-16T19:26:59.456Z,30.6
2022-11-16T19:29:17.933Z,30.3
2022-11-16T19:31:36.702Z,32.5
2022-11-16T19:33:55.144Z,31.9
2022-11-16T19:36:14.046Z,33.1
2022-11-16T19:38:32.155Z,31.5
2022-11-16T19:40:50.367Z,30.7
2022-11-16T19:43:08.539Z,30.7
2022-11-16T19:45:26.839Z,31.4
2022-11-16T19:47:45.256Z,31
2022-11-16T19:50:03.489Z,30.4
2022-11-16T19:52:21.827Z,31.5
2022-11-16T19:54:39.943Z,31.1
2022-11-16T19:56:58.378Z,30.6
2022-11-16T19:59:16.787Z,30.5
2022-11-16T20:01:35.075Z,31.5
2022-11-16T20:03:53.420Z,30.6
2022-11-16T20:06:11.835Z,30.8
2022-11-16T20:08:29.831Z,30.9
2022-11-16T20:10:48.309Z,31.3
2022-11-16T20:13:06.572Z,31.4
2022-11-16T20:17:43.161Z,30.8
2022-11-16T20:20:01.358Z,30.8
2022-11-16T20:22:19.781Z,30.8
2022-11-16T20:24:38.074Z,30.8
2022-11-16T20:26:56.396Z,30.6
2022-11-16T20:29:14.967Z,30.9
2022-11-16T20:31:33.992Z,32.9
2022-11-16T20:33:52.099Z,31.8
2022-11-16T20:36:10.829Z,30.4
2022-11-16T20:38:28.991Z,31.6
2022-11-16T20:40:47.370Z,30.8
2022-11-16T20:43:05.682Z,31.2
2022-11-16T20:45:24.248Z,31.1
2022-11-16T20:47:42.341Z,31.5
2022-11-16T20:50:00.440Z,30.9
2022-11-16T20:52:18.979Z,30.9
2022-11-16T20:54:37.479Z,31.1
2022-11-16T20:56:56.629Z,32.9
2022-11-16T20:59:14.640Z,31.1
2022-11-16T21:01:33.159Z,31.3
2022-11-16T21:03:51.359Z,30.9
2022-11-16T21:06:09.526Z,30.3
2022-11-16T21:08:27.919Z,30.8
2022-11-16T21:10:46.508Z,30.9
2022-11-16T21:13:05.510Z,32.5
2022-11-16T21:15:23.556Z,31.8
2022-11-16T21:17:42.132Z,30.8
2022-11-16T21:20:28.858Z,30.8
2022-11-16T21:22:34.228Z,30.6
2022-11-16T21:27:10.753Z,30.6
2022-11-16T21:29:29.013Z,31.1
2022-11-16T21:31:47.072Z,31.1
2022-11-16T21:34:05.535Z,30.9
2022-11-16T21:38:43.032Z,32.8
2022-11-16T21:41:01.214Z,31.3
2022-11-16T21:43:19.979Z,31.1
2022-11-16T21:45:39.151Z,32.3
2022-11-16T21:47:57.916Z,34.2
2022-11-16T21:50:34.983Z,32.1
2022-11-16T21:52:53.225Z,31.2
2022-11-16T21:55:11.743Z,30.7
2022-11-16T21:57:30.584Z,32.5
2022-11-16T21:59:48.665Z,32
2022-11-16T22:04:25.900Z,33.3
2022-11-16T22:06:44.365Z,31.9
2022-11-16T22:09:03.427Z,33
2022-11-16T22:11:22.418Z,35.4
2022-11-16T22:15:58.559Z,30.9
2022-11-16T22:18:16.885Z,30.4
2022-11-16T22:20:35.041Z,30.7
2022-11-16T22:22:53.499Z,30.7
2022-11-16T22:25:11.559Z,31.8
2022-11-16T22:27:29.641Z,31.6
2022-11-16T22:29:56.005Z,31.8
2022-11-16T22:32:14.480Z,30.6
2022-11-16T22:34:33.103Z,32.1
2022-11-16T22:36:51.700Z,31.1
2022-11-16T22:39:10.485Z,32.4
2022-11-16T22:41:28.647Z,31.6
2022-11-16T22:43:46.800Z,31.1
2022-11-16T22:46:05.062Z,30.8
2022-11-16T22:48:24.226Z,31.3
2022-11-16T22:52:59.667Z,30.4
2022-11-16T22:55:17.987Z,30.6
2022-11-16T22:57:36.481Z,31.1
2022-11-16T22:59:55.143Z,32.2
2022-11-16T23:02:13.303Z,31.5
2022-11-16T23:04:31.494Z,30.5
2022-11-16T23:06:49.787Z,30
2022-11-16T23:09:08.280Z,31.3
2022-11-16T23:11:26.477Z,31.7
2022-11-16T23:13:45.096Z,32.4
2022-11-16T23:16:03.657Z,31.1
2022-11-16T23:20:40.559Z,31.4
2022-11-16T23:22:58.767Z,30.8
2022-11-16T23:25:17.179Z,30.5
2022-11-16T23:27:35.696Z,30.6
2022-11-16T23:29:54.353Z,32.9
2022-11-16T23:32:12.416Z,31.6
2022-11-16T23:34:30.697Z,30.9
2022-11-16T23:36:48.918Z,30.9
2022-11-16T23:39:07.202Z,30.8
2022-11-16T23:41:25.534Z,31.2
2022-11-16T23:43:43.556Z,31.2
2022-11-16T23:46:01.730Z,31.7
2022-11-16T23:48:20.334Z,31.2
2022-11-16T23:50:39.066Z,32.8
2022-11-16T23:52:57.290Z,31.1
2022-11-16T23:55:15.575Z,30.9
2022-11-16T23:57:33.798Z,31.1
2022-11-16T23:59:51.833Z,31.1
